Time;durP1;ratioP1;P1;durP2;ratioP2;P2;SDS_P1;SDS_P2;PMS_P1;PMS_P2;Temp;Humidity;BMP_temperature;BMP_pressure;BME280_temperature;BME280_humidity;BME280_pressure;Samples;Min_cycle;Max_cycle;Signal;HPM_P1;HPM_P2
2022/05/18 00:00:06;;;;;;;2.90;0.93;;;13.70;99.90;;;;;;4993444;28;20524;-45
2022/05/18 00:02:32;;;;;;;1.60;1.08;;;13.60;99.90;;;;;;5011229;28;20034;-46
2022/05/18 00:04:58;;;;;;;2.42;0.95;;;13.60;99.90;;;;;;5010761;28;20530;-45
2022/05/18 00:07:23;;;;;;;1.35;0.70;;;13.60;99.90;;;;;;5011309;28;20069;-45
2022/05/18 00:09:51;;;;;;;1.45;0.77;;;13.60;99.90;;;;;;4992913;28;20030;-45
2022/05/18 00:12:17;;;;;;;1.42;1.10;;;13.60;99.90;;;;;;5010776;28;20073;-44
2022/05/18 00:14:43;;;;;;;1.20;0.63;;;13.50;99.90;;;;;;5010932;28;20032;-44
2022/05/18 00:17:09;;;;;;;3.05;1.00;;;13.50;99.90;;;;;;5011227;28;20022;-45
2022/05/18 00:19:35;;;;;;;4.90;1.00;;;13.50;99.90;;;;;;5010244;28;20038;-45
2022/05/18 00:22:01;;;;;;;2.55;0.98;;;13.50;99.90;;;;;;5010447;28;20017;-45
2022/05/18 00:24:26;;;;;;;1.50;0.80;;;13.40;99.90;;;;;;5010432;28;20026;-45
2022/05/18 00:26:52;;;;;;;0.65;0.65;;;13.40;99.90;;;;;;5010881;28;20494;-46
2022/05/18 00:29:18;;;;;;;2.90;1.17;;;13.40;99.90;;;;;;5010764;28;20026;-46
2022/05/18 00:31:46;;;;;;;2.85;0.68;;;13.30;99.90;;;;;;4992902;28;20033;-45
2022/05/18 00:34:13;;;;;;;2.83;1.15;;;13.30;99.90;;;;;;5010350;28;20049;-45
2022/05/18 00:36:39;;;;;;;0.90;0.60;;;13.20;99.90;;;;;;5010601;28;20033;-45
2022/05/18 00:39:05;;;;;;;2.40;0.85;;;13.20;99.90;;;;;;5010905;28;20544;-45
2022/05/18 00:41:30;;;;;;;3.25;0.80;;;13.20;99.90;;;;;;5010646;28;20038;-45
2022/05/18 00:43:56;;;;;;;2.88;1.30;;;13.20;99.90;;;;;;4995705;28;20037;-45
2022/05/18 00:46:22;;;;;;;4.72;0.75;;;13.10;99.90;;;;;;4991031;28;20037;-45
2022/05/18 00:48:48;;;;;;;1.67;0.80;;;13.10;99.90;;;;;;4991116;28;20026;-45
2022/05/18 00:51:22;;;;;;;1.05;0.60;;;13.10;99.90;;;;;;4991044;28;20022;-45
2022/05/18 00:53:52;;;;;;;1.92;0.82;;;13.10;99.90;;;;;;4990957;28;20029;-46
2022/05/18 00:56:25;;;;;;;3.70;0.80;;;13.00;99.90;;;;;;4982694;28;20044;-48
2022/05/18 00:59:15;;;;;;;1.80;0.70;;;13.00;99.90;;;;;;4983314;28;20030;-46
2022/05/18 01:01:41;;;;;;;1.48;0.75;;;13.00;99.90;;;;;;5007997;28;20033;-45
2022/05/18 01:04:09;;;;;;;2.13;0.90;;;12.90;99.90;;;;;;5008513;28;20092;-46
2022/05/18 01:06:55;;;;;;;3.33;0.90;;;12.90;99.90;;;;;;4993648;28;20414;-46
2022/05/18 01:09:25;;;;;;;1.05;0.93;;;12.90;99.90;;;;;;4996393;28;20045;-44
2022/05/18 01:11:51;;;;;;;0.70;0.70;;;12.90;99.90;;;;;;5010191;28;20105;-45
2022/05/18 01:14:39;;;;;;;0.55;0.45;;;12.90;99.90;;;;;;5010293;28;20448;-45
2022/05/18 01:17:06;;;;;;;0.88;0.45;;;12.80;99.90;;;;;;5010331;28;20033;-45
2022/05/18 01:19:36;;;;;;;1.00;0.60;;;12.80;99.90;;;;;;5010071;28;20113;-46
2022/05/18 01:22:26;;;;;;;3.63;0.82;;;12.80;99.90;;;;;;5009761;28;20656;-49
2022/05/18 01:25:29;;;;;;;1.45;0.60;;;12.70;99.90;;;;;;5010190;28;20030;-48
2022/05/18 01:27:56;;;;;;;0.57;0.43;;;12.70;99.90;;;;;;5010418;28;20026;-47
2022/05/18 01:30:22;;;;;;;2.85;0.55;;;12.70;99.90;;;;;;5010527;28;20109;-47
2022/05/18 01:32:51;;;;;;;1.23;0.93;;;12.70;99.90;;;;;;5010289;28;20021;-47
2022/05/18 01:35:21;;;;;;;1.35;0.70;;;12.70;99.90;;;;;;5009716;28;20022;-45
2022/05/18 01:37:47;;;;;;;1.63;0.60;;;12.70;99.90;;;;;;5010218;28;20025;-46
2022/05/18 01:40:41;;;;;;;1.50;0.63;;;12.60;99.90;;;;;;5010301;28;20025;-47
2022/05/18 01:43:30;;;;;;;1.27;0.63;;;12.60;99.90;;;;;;5009862;28;20030;-45
2022/05/18 01:46:00;;;;;;;1.80;0.57;;;12.60;99.90;;;;;;5012089;28;20026;-47
2022/05/18 01:48:34;;;;;;;3.08;0.80;;;12.50;99.90;;;;;;5013895;28;20116;-47
2022/05/18 01:51:01;;;;;;;0.93;0.63;;;12.50;99.90;;;;;;5013941;28;20601;-46
2022/05/18 01:53:28;;;;;;;1.48;1.02;;;12.50;99.90;;;;;;5013494;28;20029;-45
2022/05/18 01:55:54;;;;;;;1.25;0.75;;;12.50;99.90;;;;;;5013710;28;20057;-45
2022/05/18 01:58:20;;;;;;;1.05;0.70;;;12.50;99.90;;;;;;5013734;28;20034;-47
2022/05/18 02:00:46;;;;;;;1.13;1.00;;;12.40;99.90;;;;;;5013868;28;20498;-45
2022/05/18 02:03:14;;;;;;;1.20;1.10;;;12.40;99.90;;;;;;5013508;28;20026;-45
2022/05/18 02:05:40;;;;;;;1.80;0.60;;;12.40;99.90;;;;;;5013672;28;20042;-45
2022/05/18 02:08:07;;;;;;;2.08;0.52;;;12.40;99.90;;;;;;5013649;28;20084;-47
2022/05/18 02:10:33;;;;;;;3.80;0.50;;;12.40;99.90;;;;;;5013872;28;20069;-45
2022/05/18 02:12:58;;;;;;;1.92;0.90;;;12.30;99.90;;;;;;5013480;28;20022;-43
2022/05/18 02:15:24;;;;;;;3.15;1.00;;;12.30;99.90;;;;;;5013482;28;20026;-46
2022/05/18 02:17:51;;;;;;;1.63;0.60;;;12.30;99.90;;;;;;5013718;28;20048;-46
2022/05/18 02:20:18;;;;;;;1.92;0.60;;;12.30;99.90;;;;;;5013310;28;20670;-45
2022/05/18 02:22:44;;;;;;;2.15;0.77;;;12.20;99.90;;;;;;4997570;28;20398;-44
2022/05/18 02:25:10;;;;;;;2.78;0.73;;;12.20;99.90;;;;;;4999339;28;20034;-44
2022/05/18 02:27:36;;;;;;;1.02;0.70;;;12.20;99.90;;;;;;4996432;28;20026;-45
2022/05/18 02:30:03;;;;;;;3.28;1.08;;;12.20;99.90;;;;;;4993445;28;20589;-45
2022/05/18 02:32:29;;;;;;;1.73;1.38;;;12.10;99.90;;;;;;4993392;28;20026;-43
2022/05/18 02:34:55;;;;;;;2.72;1.40;;;12.10;99.90;;;;;;4993005;28;20022;-45
2022/05/18 02:37:20;;;;;;;4.13;1.00;;;12.10;99.90;;;;;;4993658;28;20080;-47
2022/05/18 02:39:46;;;;;;;1.52;0.88;;;12.10;99.90;;;;;;4993577;28;20110;-45
2022/05/18 02:42:12;;;;;;;3.30;0.80;;;12.10;99.90;;;;;;4993080;28;20446;-43
2022/05/18 02:44:37;;;;;;;1.55;0.70;;;12.10;99.90;;;;;;4993035;28;20056;-45
2022/05/18 02:47:03;;;;;;;1.20;0.95;;;12.00;99.90;;;;;;4993523;28;20027;-45
2022/05/18 02:49:29;;;;;;;2.80;0.88;;;12.00;99.90;;;;;;4993012;28;20642;-44
2022/05/18 02:51:55;;;;;;;3.50;0.70;;;12.00;99.90;;;;;;4993049;28;20050;-45
2022/05/18 02:57:06;;;;;;;2.83;0.63;;;12.00;99.90;;;;;;4993050;28;20041;-45
2022/05/18 02:59:32;;;;;;;1.75;0.85;;;12.00;99.90;;;;;;4993074;28;20031;-46
2022/05/18 03:01:58;;;;;;;2.38;0.90;;;12.00;99.90;;;;;;4992768;28;20122;-44
2022/05/18 03:04:25;;;;;;;1.23;0.60;;;12.00;99.90;;;;;;4975079;28;20030;-45
2022/05/18 03:06:52;;;;;;;1.70;0.90;;;12.00;99.90;;;;;;4992912;28;20034;-45
2022/05/18 03:09:18;;;;;;;2.70;1.10;;;12.00;99.90;;;;;;4992769;28;20030;-45
2022/05/18 03:11:44;;;;;;;2.85;0.90;;;12.00;99.90;;;;;;4992630;28;20021;-45
2022/05/18 03:14:10;;;;;;;2.22;0.95;;;12.00;99.90;;;;;;4992789;28;20030;-45
2022/05/18 03:16:37;;;;;;;1.15;0.93;;;12.00;99.90;;;;;;4992737;28;20026;-46
2022/05/18 03:19:02;;;;;;;2.80;0.98;;;11.90;99.90;;;;;;4992476;28;20027;-45
2022/05/18 03:24:12;;;;;;;3.33;0.70;;;11.90;99.90;;;;;;4993161;28;20509;-45
2022/05/18 03:26:37;;;;;;;4.22;1.23;;;11.90;99.90;;;;;;4992971;28;20030;-47
2022/05/18 03:29:03;;;;;;;4.25;0.90;;;11.90;99.90;;;;;;4992938;28;20122;-49
2022/05/18 03:31:29;;;;;;;1.55;0.95;;;11.90;99.90;;;;;;4992364;28;20034;-48
2022/05/18 03:33:55;;;;;;;1.48;1.02;;;11.90;99.90;;;;;;4992396;28;20041;-49
2022/05/18 03:36:21;;;;;;;2.25;0.80;;;11.90;99.90;;;;;;4992328;28;20506;-45
2022/05/18 03:38:48;;;;;;;1.25;1.15;;;11.90;99.90;;;;;;4991990;28;20030;-48
2022/05/18 03:41:14;;;;;;;1.75;0.70;;;11.90;99.90;;;;;;4991909;28;20037;-49
2022/05/18 03:43:40;;;;;;;1.77;0.73;;;11.90;99.90;;;;;;4992149;28;20099;-45
2022/05/18 03:46:06;;;;;;;2.85;1.08;;;11.90;99.90;;;;;;4991952;28;20026;-46
2022/05/18 03:48:33;;;;;;;2.70;0.90;;;11.90;99.90;;;;;;4974891;28;20038;-47
2022/05/18 03:51:00;;;;;;;2.20;0.95;;;11.90;99.90;;;;;;4991774;28;20113;-45
2022/05/18 03:53:26;;;;;;;1.05;0.90;;;11.80;99.90;;;;;;4974098;28;20054;-47
2022/05/18 03:55:52;;;;;;;1.17;0.70;;;11.80;99.90;;;;;;4991921;28;20391;-45
2022/05/18 03:58:18;;;;;;;1.33;0.90;;;11.90;99.90;;;;;;4991893;28;20030;-45
2022/05/18 04:00:46;;;;;;;2.72;1.02;;;11.90;99.90;;;;;;4992128;28;20077;-45
2022/05/18 04:03:13;;;;;;;3.47;1.00;;;11.90;99.90;;;;;;4991779;28;20038;-45
2022/05/18 04:05:40;;;;;;;1.40;0.82;;;11.90;99.90;;;;;;4991704;28;20034;-45
2022/05/18 04:08:07;;;;;;;2.10;1.48;;;11.90;99.90;;;;;;4991113;28;20022;-45
2022/05/18 04:10:33;;;;;;;2.65;1.08;;;11.90;99.90;;;;;;4991711;28;20034;-47
2022/05/18 04:12:59;;;;;;;0.98;0.70;;;11.90;99.90;;;;;;4973792;28;20029;-47
2022/05/18 04:15:25;;;;;;;2.10;1.02;;;11.90;99.90;;;;;;4991566;28;20030;-45
2022/05/18 04:17:51;;;;;;;2.55;1.00;;;11.90;99.90;;;;;;4991600;28;20023;-45
2022/05/18 04:20:19;;;;;;;2.67;1.02;;;11.90;99.90;;;;;;4991718;28;20033;-46
2022/05/18 04:22:46;;;;;;;2.67;1.08;;;12.00;99.90;;;;;;4973399;28;20026;-48
2022/05/18 04:25:15;;;;;;;2.40;1.15;;;12.00;99.90;;;;;;4973748;28;20038;-44
2022/05/18 04:27:41;;;;;;;2.15;0.95;;;12.00;99.90;;;;;;4991165;28;20030;-45
2022/05/18 04:30:08;;;;;;;4.05;1.35;;;12.00;99.90;;;;;;4973754;28;20482;-45
2022/05/18 04:32:34;;;;;;;1.95;1.02;;;12.10;99.90;;;;;;4990894;28;20482;-46
2022/05/18 04:34:59;;;;;;;4.97;1.52;;;12.10;99.90;;;;;;4991238;28;20038;-45
2022/05/18 04:37:25;;;;;;;2.60;1.10;;;12.10;99.90;;;;;;4991175;28;20026;-46
2022/05/18 04:39:50;;;;;;;2.30;1.30;;;12.20;99.90;;;;;;4991527;28;20084;-46
2022/05/18 04:42:18;;;;;;;1.15;0.80;;;12.20;99.90;;;;;;4991046;28;20032;-45
2022/05/18 04:44:44;;;;;;;3.20;0.98;;;12.30;99.90;;;;;;4989844;28;20022;-45
2022/05/18 04:47:09;;;;;;;3.08;1.30;;;12.30;99.90;;;;;;4990696;28;20049;-45
2022/05/18 04:49:35;;;;;;;2.10;1.23;;;12.40;99.90;;;;;;4990104;28;20442;-45
2022/05/18 04:52:01;;;;;;;1.50;1.08;;;12.50;99.90;;;;;;4990560;28;20049;-45
2022/05/18 04:54:27;;;;;;;1.35;0.98;;;12.60;99.90;;;;;;4990562;28;20022;-45
2022/05/18 04:56:52;;;;;;;5.47;1.17;;;12.60;99.90;;;;;;4991090;28;20089;-45
2022/05/18 04:59:18;;;;;;;3.20;1.00;;;12.70;99.90;;;;;;4990998;28;20026;-46
2022/05/18 05:01:44;;;;;;;1.95;1.10;;;12.70;99.90;;;;;;4990452;28;20026;-46
2022/05/18 05:04:10;;;;;;;1.52;1.35;;;12.80;99.90;;;;;;4990206;28;20042;-45
2022/05/18 05:06:37;;;;;;;1.95;0.93;;;12.80;99.90;;;;;;4990443;28;20034;-44
2022/05/18 05:09:03;;;;;;;2.42;1.17;;;12.80;99.90;;;;;;4990840;28;20027;-47
2022/05/18 05:11:29;;;;;;;3.38;1.40;;;12.90;99.90;;;;;;4990565;28;20030;-45
2022/05/18 05:13:55;;;;;;;2.35;1.38;;;12.90;99.90;;;;;;4990625;28;20030;-46
2022/05/18 05:16:20;;;;;;;1.83;1.45;;;13.00;99.90;;;;;;4990584;28;20446;-46
2022/05/18 05:18:46;;;;;;;1.65;1.15;;;13.00;99.90;;;;;;4990521;28;20105;-45
2022/05/18 05:21:11;;;;;;;1.17;1.08;;;13.00;99.90;;;;;;4989879;28;20498;-46
2022/05/18 05:23:37;;;;;;;4.13;1.33;;;13.10;99.90;;;;;;4990232;28;20034;-49
2022/05/18 05:26:04;;;;;;;3.15;1.67;;;13.10;99.90;;;;;;4990649;28;20026;-45
2022/05/18 05:28:30;;;;;;;2.67;1.23;;;13.20;99.90;;;;;;4990596;28;20044;-45
2022/05/18 05:31:04;;;;;;;5.35;1.52;;;13.30;99.90;;;;;;4990595;28;20034;-50
2022/05/18 05:33:30;;;;;;;1.88;1.42;;;13.30;99.90;;;;;;4990432;28;20126;-49
2022/05/18 05:35:57;;;;;;;2.53;1.30;;;13.50;99.90;;;;;;4990320;28;20033;-47
2022/05/18 05:38:23;;;;;;;3.03;1.25;;;13.50;99.90;;;;;;4990568;28;20027;-50
2022/05/18 05:40:49;;;;;;;1.77;1.60;;;13.50;99.90;;;;;;4973311;28;20026;-46
2022/05/18 05:43:14;;;;;;;1.90;1.42;;;13.60;99.90;;;;;;4990375;28;20586;-48
2022/05/18 05:45:40;;;;;;;2.03;1.70;;;13.70;99.90;;;;;;4990053;28;20129;-47
2022/05/18 05:48:10;;;;;;;2.38;1.38;;;13.90;99.90;;;;;;4990386;28;20076;-46
2022/05/18 05:50:35;;;;;;;3.80;1.60;;;14.00;99.90;;;;;;4990642;28;20047;-47
2022/05/18 05:53:01;;;;;;;2.80;1.70;;;14.20;99.90;;;;;;4989976;28;20058;-46
2022/05/18 05:55:28;;;;;;;2.38;1.90;;;14.30;99.90;;;;;;4990474;28;20033;-46
2022/05/18 05:57:54;;;;;;;3.70;1.73;;;14.60;99.90;;;;;;4990623;28;20026;-50
2022/05/18 06:00:23;;;;;;;4.55;1.70;;;14.70;99.90;;;;;;4990574;28;20030;-46
2022/05/18 06:02:52;;;;;;;5.15;1.90;;;14.80;99.90;;;;;;4972843;28;20062;-47
2022/05/18 06:05:18;;;;;;;4.28;2.45;;;15.00;99.90;;;;;;4990174;28;20100;-47
2022/05/18 06:07:44;;;;;;;3.10;1.45;;;15.10;99.90;;;;;;4990398;28;20027;-46
2022/05/18 06:10:10;;;;;;;1.67;1.58;;;15.30;99.90;;;;;;4990358;28;20086;-44
2022/05/18 06:12:38;;;;;;;1.67;1.58;;;15.50;99.90;;;;;;4990132;28;20027;-47
2022/05/18 06:15:04;;;;;;;3.33;2.35;;;15.60;99.90;;;;;;4990100;28;20506;-45
2022/05/18 06:17:30;;;;;;;2.10;1.80;;;15.70;99.90;;;;;;4989819;28;20162;-45
2022/05/18 06:19:56;;;;;;;2.20;1.90;;;15.70;99.90;;;;;;4989677;28;20101;-45
2022/05/18 06:22:21;;;;;;;2.78;1.77;;;15.70;99.90;;;;;;4989983;28;20061;-46
2022/05/18 06:24:51;;;;;;;2.25;1.95;;;15.60;99.90;;;;;;4989999;28;20031;-46
2022/05/18 06:27:17;;;;;;;1.73;1.63;;;15.60;99.90;;;;;;4990223;28;20034;-46
2022/05/18 06:29:42;;;;;;;3.63;1.90;;;15.60;99.90;;;;;;4990164;28;20038;-46
2022/05/18 06:32:08;;;;;;;3.05;2.00;;;15.50;99.90;;;;;;4992183;28;20029;-46
2022/05/18 06:34:34;;;;;;;3.50;1.98;;;15.40;99.90;;;;;;4993769;28;20069;-55
2022/05/18 06:36:59;;;;;;;4.65;2.10;;;15.40;99.90;;;;;;4993838;28;20376;-48
2022/05/18 06:39:25;;;;;;;2.88;1.77;;;15.40;99.90;;;;;;4993963;28;20405;-50
2022/05/18 06:41:50;;;;;;;2.72;2.00;;;15.40;99.90;;;;;;4993285;28;20034;-47
2022/05/18 06:44:16;;;;;;;4.43;2.17;;;15.50;99.90;;;;;;4993395;28;20082;-51
2022/05/18 06:46:42;;;;;;;4.65;2.28;;;15.60;99.90;;;;;;4993181;28;20038;-50
2022/05/18 06:49:11;;;;;;;2.55;1.95;;;15.70;99.90;;;;;;4993316;28;20046;-47
2022/05/18 06:51:40;;;;;;;2.97;2.00;;;15.70;99.90;;;;;;4993094;28;20121;-52
2022/05/18 06:54:07;;;;;;;4.32;2.20;;;15.80;99.90;;;;;;4993286;28;20030;-49
2022/05/18 06:56:36;;;;;;;3.47;2.67;;;15.90;99.90;;;;;;4993094;28;20105;-47
2022/05/18 06:59:02;;;;;;;5.25;2.78;;;15.90;99.90;;;;;;4976023;28;20105;-47
2022/05/18 07:01:28;;;;;;;2.35;2.13;;;16.00;99.90;;;;;;4992658;28;20034;-51
2022/05/18 07:03:54;;;;;;;2.38;2.17;;;16.20;99.90;;;;;;4992878;28;20371;-45
2022/05/18 07:06:22;;;;;;;3.50;2.50;;;16.40;99.90;;;;;;4993046;28;20111;-45
2022/05/18 07:08:51;;;;;;;2.60;2.40;;;16.50;99.90;;;;;;4992952;28;20088;-52
2022/05/18 07:11:17;;;;;;;3.33;2.22;;;16.60;99.90;;;;;;4992809;28;20018;-46
2022/05/18 07:13:43;;;;;;;2.72;1.92;;;16.70;99.90;;;;;;4992998;28;20095;-48
2022/05/18 07:16:09;;;;;;;4.90;2.47;;;16.80;99.90;;;;;;4993205;28;20053;-48
2022/05/18 07:18:36;;;;;;;3.22;2.80;;;16.80;99.90;;;;;;4993048;28;20490;-46
2022/05/18 07:21:04;;;;;;;3.45;2.58;;;16.70;99.90;;;;;;4975110;28;20049;-50
2022/05/18 07:23:30;;;;;;;5.28;3.28;;;16.70;99.90;;;;;;4992342;28;20037;-48
2022/05/18 07:25:57;;;;;;;2.25;2.05;;;16.50;99.90;;;;;;4975169;28;20031;-47
2022/05/18 07:28:24;;;;;;;4.00;2.63;;;16.50;99.90;;;;;;4992595;28;20030;-50
2022/05/18 07:30:51;;;;;;;3.55;2.80;;;16.50;99.90;;;;;;4992692;28;20027;-47
2022/05/18 07:33:18;;;;;;;5.35;2.78;;;16.50;99.90;;;;;;4992484;28;20042;-49
2022/05/18 07:35:44;;;;;;;3.80;2.47;;;16.40;99.90;;;;;;4974797;28;20376;-48
2022/05/18 07:38:10;;;;;;;4.75;2.58;;;16.40;99.90;;;;;;4992670;28;20026;-50
2022/05/18 07:40:36;;;;;;;5.40;2.75;;;16.40;99.90;;;;;;4992454;28;20030;-47
2022/05/18 07:43:02;;;;;;;3.42;3.13;;;16.40;99.90;;;;;;4990991;28;20019;-48
2022/05/18 07:45:28;;;;;;;4.53;2.55;;;16.40;99.90;;;;;;4992064;28;20035;-51
2022/05/18 07:47:55;;;;;;;5.18;2.63;;;16.40;99.90;;;;;;4992366;28;20080;-49
2022/05/18 07:50:24;;;;;;;5.07;2.92;;;16.40;99.90;;;;;;4974719;28;20478;-47
2022/05/18 07:52:52;;;;;;;3.08;2.33;;;16.50;99.90;;;;;;4991988;28;20053;-49
2022/05/18 07:55:19;;;;;;;4.05;3.10;;;16.50;99.90;;;;;;4992500;28;20038;-49
2022/05/18 07:57:45;;;;;;;3.70;2.72;;;16.60;99.90;;;;;;4992296;28;20113;-52
2022/05/18 08:00:12;;;;;;;3.60;2.78;;;16.70;99.90;;;;;;4992058;28;20110;-48
2022/05/18 08:02:38;;;;;;;4.50;2.88;;;16.70;99.90;;;;;;4991767;28;20031;-51
2022/05/18 08:05:06;;;;;;;6.47;2.65;;;16.80;99.90;;;;;;4991489;28;20037;-49
2022/05/18 08:07:32;;;;;;;3.35;2.97;;;16.90;99.90;;;;;;4991806;28;20088;-47
2022/05/18 08:15:26;;;;;;;5.13;3.00;;;17.50;99.90;;;;;;4992025;28;20034;-49
2022/05/18 08:17:51;;;;;;;3.40;3.10;;;17.70;99.90;;;;;;4991553;28;20026;-51
2022/05/18 08:20:20;;;;;;;7.13;4.30;;;17.90;99.90;;;;;;4990784;28;20038;-51
2022/05/18 08:22:46;;;;;;;4.47;2.75;;;18.10;99.90;;;;;;4991297;28;20133;-47
2022/05/18 08:25:13;;;;;;;4.40;3.38;;;18.40;99.90;;;;;;4991463;28;20438;-47
2022/05/18 08:27:45;;;;;;;5.90;3.55;;;18.60;99.90;;;;;;4991476;28;20038;-47
2022/05/18 08:30:14;;;;;;;4.13;3.65;;;18.80;99.90;;;;;;4991437;28;20498;-47
2022/05/18 08:32:40;;;;;;;4.68;4.22;;;18.80;99.90;;;;;;4991322;28;20479;-53
2022/05/18 08:35:07;;;;;;;5.35;3.33;;;19.00;99.90;;;;;;4991289;28;20072;-50
2022/05/18 08:37:40;;;;;;;4.85;4.25;;;19.20;99.90;;;;;;4991128;28;20031;-47
2022/05/18 08:40:11;;;;;;;3.60;3.30;;;19.50;99.90;;;;;;4991178;28;20022;-47
2022/05/18 08:42:37;;;;;;;4.78;3.97;;;19.80;99.90;;;;;;4990731;28;20045;-48
2022/05/18 08:45:03;;;;;;;6.18;3.90;;;20.10;99.90;;;;;;4990782;28;20491;-47
2022/05/18 08:47:42;;;;;;;5.43;3.80;;;20.30;99.90;;;;;;4991224;28;20035;-49
2022/05/18 08:50:13;;;;;;;3.53;3.17;;;20.60;99.90;;;;;;4991139;28;20603;-52
2022/05/18 08:52:44;;;;;;;5.75;4.00;;;20.90;99.90;;;;;;4973241;28;20113;-49
2022/05/18 08:55:43;;;;;;;4.30;3.60;;;21.10;99.90;;;;;;4990470;28;20102;-52
2022/05/18 08:58:24;;;;;;;5.20;4.18;;;21.30;99.90;;;;;;4990956;28;20026;-46
2022/05/18 09:00:58;;;;;;;4.93;4.32;;;21.40;99.90;;;;;;4973539;28;20054;-48
2022/05/18 09:03:40;;;;;;;5.75;4.18;;;21.50;99.90;;;;;;4990560;28;20045;-51
2022/05/18 09:06:33;;;;;;;3.70;3.40;;;21.60;99.90;;;;;;4990990;28;20140;-54
2022/05/18 09:11:54;;;;;;;4.00;3.60;;;21.80;99.90;;;;;;4990772;28;20064;-50
2022/05/18 09:14:22;;;;;;;6.20;3.70;;;22.00;99.90;;;;;;4973364;28;20046;-51
2022/05/18 09:17:25;;;;;;;4.45;3.72;;;22.20;99.90;;;;;;4991009;28;20457;-52
2022/05/18 09:20:20;;;;;;;5.20;3.55;;;22.30;99.90;;;;;;4990337;28;20093;-49
2022/05/18 09:23:11;;;;;;;8.90;3.80;;;22.40;99.90;;;;;;4990527;28;20113;-49
2022/05/18 09:26:03;;;;;;;4.00;3.50;;;22.50;99.90;;;;;;4990589;28;20030;-47
2022/05/18 09:28:53;;;;;;;5.97;4.20;;;22.70;99.90;;;;;;4990447;28;20031;-48
2022/05/18 09:31:34;;;;;;;10.75;4.68;;;22.70;99.90;;;;;;4972909;28;20118;-50
2022/05/18 09:34:29;;;;;;;5.05;4.55;;;22.60;99.90;;;;;;4990600;28;20455;-44
2022/05/18 09:37:21;;;;;;;4.13;3.75;;;22.50;99.90;;;;;;4990615;28;20022;-46
2022/05/18 09:39:53;;;;;;;3.30;3.00;;;22.60;99.90;;;;;;4990504;28;20050;-47
2022/05/18 09:42:22;;;;;;;5.18;3.85;;;22.70;99.90;;;;;;4972947;28;20026;-45
2022/05/18 09:44:59;;;;;;;5.78;3.58;;;22.80;99.90;;;;;;4972804;28;20394;-45
2022/05/18 09:47:27;;;;;;;3.83;3.53;;;23.00;99.90;;;;;;4991025;28;20038;-45
2022/05/18 09:49:55;;;;;;;4.05;3.42;;;23.00;99.90;;;;;;4990594;28;20030;-45
2022/05/18 09:52:24;;;;;;;4.15;3.65;;;23.00;99.90;;;;;;4990378;28;20035;-54
2022/05/18 09:54:58;;;;;;;4.38;3.97;;;23.10;99.90;;;;;;4990314;28;20037;-50
2022/05/18 09:58:01;;;;;;;4.10;3.75;;;23.20;99.90;;;;;;4990721;28;20038;-52
2022/05/18 10:00:29;;;;;;;5.43;4.25;;;23.20;99.90;;;;;;4989820;28;20058;-52
2022/05/18 10:08:32;;;;;;;6.93;4.32;;;23.30;99.90;;;;;;4994406;28;20048;-53
2022/05/18 10:11:12;;;;;;;5.75;4.10;;;23.20;99.90;;;;;;4993990;28;20027;-52
2022/05/18 10:13:43;;;;;;;4.65;4.22;;;23.30;99.90;;;;;;4993878;28;20029;-47
2022/05/18 10:16:28;;;;;;;5.07;4.30;;;23.30;99.90;;;;;;4993976;28;20084;-48
2022/05/18 10:18:58;;;;;;;7.40;4.20;;;23.30;99.90;;;;;;4976096;28;20090;-48
2022/05/18 10:21:38;;;;;;;5.40;4.80;;;23.20;99.90;;;;;;4993694;28;20081;-51
2022/05/18 10:24:29;;;;;;;5.15;4.38;;;23.20;99.90;;;;;;4992555;28;20035;-52
2022/05/18 10:27:15;;;;;;;6.00;4.70;;;23.20;99.90;;;;;;4994070;28;20510;-46
2022/05/18 10:29:48;;;;;;;6.05;5.55;;;23.30;99.90;;;;;;4980112;28;20414;-50
2022/05/18 10:32:24;;;;;;;5.90;4.70;;;23.20;99.90;;;;;;4976309;28;20395;-50
2022/05/18 10:34:52;;;;;;;6.22;4.50;;;23.30;99.90;;;;;;4993441;28;20483;-46
2022/05/18 10:37:28;;;;;;;5.40;4.45;;;23.30;99.90;;;;;;4993584;28;20602;-50
2022/05/18 10:40:10;;;;;;;5.82;4.20;;;23.30;99.90;;;;;;4993452;28;20026;-50
2022/05/18 10:42:48;;;;;;;5.20;4.80;;;23.30;99.90;;;;;;4993332;28;20030;-52
2022/05/18 10:45:26;;;;;;;5.28;4.78;;;23.40;99.90;;;;;;4975486;28;20089;-49
2022/05/18 10:47:54;;;;;;;5.07;4.50;;;23.40;99.90;;;;;;4993439;28;20117;-48
2022/05/18 10:50:25;;;;;;;5.15;4.40;;;23.40;99.90;;;;;;4993319;28;20058;-48
2022/05/18 10:53:00;;;;;;;6.90;4.78;;;23.50;99.90;;;;;;4993202;28;20410;-50
2022/05/18 10:55:29;;;;;;;4.85;3.95;;;23.50;99.90;;;;;;4993311;28;20026;-48
2022/05/18 10:58:06;;;;;;;5.25;4.50;;;23.50;99.90;;;;;;4993229;28;20064;-48
2022/05/18 11:00:55;;;;;;;5.65;4.80;;;23.50;99.90;;;;;;4993205;28;20081;-52
2022/05/18 11:03:35;;;;;;;6.20;4.47;;;23.60;99.90;;;;;;4993113;28;20057;-49
2022/05/18 11:06:22;;;;;;;7.15;5.13;;;23.70;99.90;;;;;;4975777;28;20041;-47
2022/05/18 11:08:49;;;;;;;4.95;4.53;;;23.70;99.90;;;;;;4993395;28;20397;-50
2022/05/18 11:11:42;;;;;;;5.60;4.80;;;23.70;99.90;;;;;;4992571;28;20654;-49
2022/05/18 11:14:17;;;;;;;5.40;4.93;;;23.70;99.90;;;;;;4992844;28;20413;-50
2022/05/18 11:17:06;;;;;;;5.13;4.70;;;23.80;99.90;;;;;;4993026;28;20487;-51
2022/05/18 11:19:52;;;;;;;9.25;5.28;;;23.80;99.90;;;;;;4953165;28;20266;-49
2022/05/18 11:22:58;;;;;;;5.80;5.28;;;23.90;99.90;;;;;;4992752;28;20027;-49
2022/05/18 11:25:24;;;;;;;7.18;5.25;;;23.90;99.90;;;;;;4993031;28;20050;-47
2022/05/18 11:27:52;;;;;;;7.13;5.72;;;24.00;99.90;;;;;;4992914;28;20570;-45
2022/05/18 11:30:27;;;;;;;5.63;5.13;;;24.10;99.90;;;;;;4992670;28;20569;-46
2022/05/18 11:33:12;;;;;;;;;;;24.10;99.90;;;;;;4992700;28;20072;-47
2022/05/18 11:35:40;;;;;;;6.80;5.55;;;24.10;99.90;;;;;;4992245;28;19956;-51
2022/05/18 11:38:24;;;;;;;5.72;5.22;;;24.10;99.90;;;;;;4992350;28;20030;-48
2022/05/18 11:41:23;;;;;;;6.18;5.57;;;24.20;99.90;;;;;;4992384;28;20026;-50
2022/05/18 11:44:19;;;;;;;6.57;5.32;;;24.30;99.90;;;;;;4992350;28;20081;-46
2022/05/18 11:47:36;;;;;;;7.40;5.43;;;24.30;99.90;;;;;;4992281;28;20438;-48
2022/05/18 11:50:13;;;;;;;6.70;6.13;;;24.50;99.90;;;;;;4958788;28;20077;-48
2022/05/18 11:52:58;;;;;;;7.10;5.93;;;24.50;99.90;;;;;;4991790;28;20026;-50
2022/05/18 11:55:46;;;;;;;8.23;5.73;;;24.60;99.90;;;;;;4974617;28;20038;-46
2022/05/18 11:58:48;;;;;;;8.52;6.18;;;24.70;99.90;;;;;;4992061;28;20061;-50
2022/05/18 12:01:38;;;;;;;8.55;6.13;;;24.80;99.90;;;;;;4991772;28;20022;-55
2022/05/18 12:04:22;;;;;;;6.93;6.18;;;24.90;99.90;;;;;;4991847;28;20122;-52
2022/05/18 12:07:23;;;;;;;6.78;6.10;;;25.00;99.90;;;;;;4991917;28;20023;-51
2022/05/18 12:10:06;;;;;;;6.90;5.60;;;25.00;99.90;;;;;;4991886;28;20033;-52
2022/05/18 12:12:56;;;;;;;6.68;6.07;;;25.10;99.90;;;;;;4991439;28;20030;-52
2022/05/18 12:15:28;;;;;;;7.57;6.28;;;25.30;99.90;;;;;;4974383;28;20514;-51
2022/05/18 12:18:23;;;;;;;6.95;6.35;;;25.40;99.90;;;;;;4991671;28;20022;-51
2022/05/18 12:21:09;;;;;;;7.10;6.43;;;25.50;99.90;;;;;;4984406;28;20125;-49
2022/05/18 12:23:50;;;;;;;6.50;5.90;;;25.70;99.90;;;;;;4991653;28;20023;-50
2022/05/18 12:26:20;;;;;;;6.68;6.03;;;25.80;99.90;;;;;;4991637;28;20517;-47
2022/05/18 12:28:46;;;;;;;6.13;5.63;;;25.90;99.90;;;;;;4990662;28;20033;-47
2022/05/18 12:31:12;;;;;;;6.25;5.65;;;25.90;99.90;;;;;;4991303;28;20030;-48
2022/05/18 12:33:54;;;;;;;6.15;5.63;;;26.00;99.90;;;;;;4991193;28;20026;-47
2022/05/18 12:36:32;;;;;;;6.25;5.72;;;26.10;99.90;;;;;;4991351;28;20037;-48
2022/05/18 12:39:17;;;;;;;6.72;5.93;;;26.10;99.90;;;;;;4991233;28;20034;-52
2022/05/18 12:41:46;;;;;;;6.05;5.55;;;26.20;99.90;;;;;;4991050;28;20026;-47
2022/05/18 12:44:22;;;;;;;6.05;5.55;;;26.20;99.90;;;;;;4990882;28;20384;-47
2022/05/18 12:47:08;;;;;;;6.32;5.72;;;26.30;99.90;;;;;;4974886;28;20049;-48
2022/05/18 12:49:40;;;;;;;6.07;5.47;;;26.30;99.90;;;;;;4991088;28;20031;-48
2022/05/18 12:52:14;;;;;;;6.00;5.50;;;26.40;99.90;;;;;;4990700;28;20093;-46
2022/05/18 12:54:44;;;;;;;6.85;5.47;;;26.60;99.90;;;;;;4990870;28;20109;-47
2022/05/18 12:57:17;;;;;;;5.70;5.15;;;26.70;99.30;;;;;;4991124;28;20053;-49
2022/05/18 13:00:06;;;;;;;6.45;5.30;;;26.70;99.70;;;;;;4991172;28;20487;-47
2022/05/18 13:02:41;;;;;;;6.32;5.72;;;26.90;99.70;;;;;;4990804;28;20437;-48
2022/05/18 13:05:33;;;;;;;8.35;5.50;;;26.90;97.50;;;;;;4990634;28;20403;-47
2022/05/18 13:08:25;;;;;;;6.40;5.90;;;27.00;99.50;;;;;;4990754;28;20510;-47
2022/05/18 13:11:14;;;;;;;5.65;5.15;;;27.20;99.90;;;;;;4960620;28;20173;-47
2022/05/18 13:13:58;;;;;;;5.55;5.00;;;27.30;99.90;;;;;;4990598;28;20026;-45
2022/05/18 13:16:39;;;;;;;6.00;5.50;;;27.60;99.50;;;;;;4990790;28;20114;-45
2022/05/18 13:19:13;;;;;;;5.80;5.25;;;27.70;98.80;;;;;;4990325;28;20018;-46
2022/05/18 13:21:52;;;;;;;5.53;5.13;;;27.80;98.50;;;;;;4972889;28;20022;-46
2022/05/18 13:24:20;;;;;;;5.43;4.80;;;27.90;98.00;;;;;;4990617;28;20069;-46
2022/05/18 13:26:49;;;;;;;5.20;4.70;;;27.80;97.40;;;;;;4990763;28;20554;-48
2022/05/18 13:29:20;;;;;;;5.55;5.03;;;27.80;96.20;;;;;;4990618;28;20479;-46